Time;durP1;ratioP1;P1;durP2;ratioP2;P2;SDS_P1;SDS_P2;PMS_P1;PMS_P2;Temp;Humidity;BMP_temperature;BMP_pressure;BME280_temperature;BME280_humidity;BME280_pressure;Samples;Min_cycle;Max_cycle;Signal;HPM_P1;HPM_P2
2021/07/04 00:00:47;;;;;;;12.80;9.55;;;;;;;20.42;72.58;99937.78;5014299;28;20056;-68
2021/07/04 00:03:16;;;;;;;11.63;9.30;;;;;;;20.47;72.74;99934.56;5000652;28;20431;-68
2021/07/04 00:05:46;;;;;;;11.15;9.30;;;;;;;20.50;72.17;99933.00;4993700;28;20077;-68
2021/07/04 00:08:18;;;;;;;13.05;8.45;;;;;;;20.51;72.03;99926.91;4993946;28;20411;-68
2021/07/04 00:10:51;;;;;;;10.45;9.32;;;;;;;20.47;72.09;99926.09;4993620;28;20400;-68
2021/07/04 00:13:19;;;;;;;11.90;9.32;;;;;;;20.48;71.99;99928.53;4999916;28;20064;-68
2021/07/04 00:15:48;;;;;;;11.13;9.70;;;;;;;20.42;71.88;99924.44;4992912;28;20065;-68
2021/07/04 00:18:18;;;;;;;13.93;9.82;;;;;;;20.40;72.23;99920.38;5010271;28;20061;-68
2021/07/04 00:20:46;;;;;;;13.65;8.90;;;;;;;20.41;72.15;99933.31;5012828;28;20491;-68
2021/07/04 00:23:14;;;;;;;12.82;9.38;;;;;;;20.37;71.62;99932.47;5011996;28;20049;-68
2021/07/04 00:25:42;;;;;;;11.77;8.57;;;;;;;20.22;72.43;99929.59;5012733;28;20064;-68
2021/07/04 00:28:12;;;;;;;14.43;9.30;;;;;;;20.25;71.79;99920.28;5012418;28;20475;-68
2021/07/04 00:30:39;;;;;;;;;;;;;;;20.27;72.06;99922.75;5013354;28;20525;-68
2021/07/04 00:33:08;;;;;;;9.70;8.10;;;;;;;20.26;71.67;99926.75;5012649;28;20392;-68
2021/07/04 00:35:36;;;;;;;10.35;8.65;;;;;;;20.21;71.76;99927.13;5012368;28;20054;-68
2021/07/04 00:38:05;;;;;;;12.18;10.00;;;;;;;20.20;71.67;99919.84;5012414;28;20407;-68
2021/07/04 00:40:33;;;;;;;9.82;8.82;;;;;;;20.22;71.72;99920.25;5012053;28;20058;-68
2021/07/04 00:43:00;;;;;;;10.85;9.15;;;;;;;20.26;71.83;99919.09;5012450;28;20046;-68
2021/07/04 00:45:29;;;;;;;10.88;9.63;;;;;;;20.30;72.09;99907.00;5012436;28;20065;-68
2021/07/04 00:47:57;;;;;;;10.32;9.32;;;;;;;20.31;71.75;99905.81;5012137;28;20053;-68
2021/07/04 00:50:26;;;;;;;10.60;9.50;;;;;;;20.32;71.81;99901.75;5012572;28;20054;-68
2021/07/04 00:52:55;;;;;;;12.15;9.27;;;;;;;20.30;71.64;99901.34;5011927;28;20483;-68
2021/07/04 00:55:22;;;;;;;10.63;9.48;;;;;;;20.31;72.49;99895.28;5012320;28;20068;-68
2021/07/04 00:57:53;;;;;;;10.07;8.82;;;;;;;20.34;72.70;99899.34;5012175;28;20057;-68
2021/07/04 01:00:24;;;;;;;12.23;9.38;;;;;;;20.36;72.54;99892.06;5014579;28;20054;-68
2021/07/04 01:02:53;;;;;;;10.25;9.25;;;;;;;20.33;72.35;99890.06;5006895;28;20050;-68
2021/07/04 01:05:23;;;;;;;12.85;9.88;;;;;;;20.36;72.78;99886.41;4997029;28;20418;-68
2021/07/04 01:07:50;;;;;;;;;;;;;;;20.30;72.69;99881.53;4999303;28;20049;-68
2021/07/04 01:10:20;;;;;;;11.60;9.98;;;;;;;20.31;72.78;99877.50;4996046;28;19944;-68
2021/07/04 01:12:48;;;;;;;;;;;;;;;20.27;72.60;99874.66;4996908;28;20514;-68
2021/07/04 01:15:17;;;;;;;10.77;9.63;;;;;;;20.33;72.35;99875.91;4996623;28;20371;-68
2021/07/04 01:17:46;;;;;;;12.35;9.90;;;;;;;20.30;72.54;99879.50;4996263;28;20051;-68
2021/07/04 01:20:17;;;;;;;12.48;10.40;;;;;;;20.31;72.70;99874.69;4996670;28;20054;-68
2021/07/04 01:22:55;;;;;;;12.48;10.20;;;;;;;20.30;72.85;99873.84;5000183;28;20112;-68
2021/07/04 01:25:25;;;;;;;11.43;10.23;;;;;;;20.19;73.11;99868.13;5015824;28;20053;-68
2021/07/04 01:27:52;;;;;;;12.98;10.38;;;;;;;20.23;72.77;99871.81;5015601;28;20503;-68
2021/07/04 01:30:23;;;;;;;11.85;10.10;;;;;;;20.24;73.02;99867.78;5015824;28;20054;-68
2021/07/04 01:32:51;;;;;;;12.90;11.13;;;;;;;20.26;72.98;99864.53;5015591;28;20479;-68
2021/07/04 01:35:19;;;;;;;13.73;10.70;;;;;;;20.26;72.98;99865.38;5015477;28;20058;-68
2021/07/04 01:37:47;;;;;;;14.15;10.68;;;;;;;20.27;72.65;99864.16;5014990;28;20058;-68
2021/07/04 01:40:16;;;;;;;11.95;10.73;;;;;;;20.25;72.53;99863.72;5016121;28;20061;-68
2021/07/04 01:42:45;;;;;;;12.40;10.60;;;;;;;20.15;73.07;99861.66;5015750;28;20060;-68
2021/07/04 01:45:14;;;;;;;14.63;10.93;;;;;;;20.21;72.76;99867.75;5015505;28;20053;-68
2021/07/04 01:47:44;;;;;;;13.32;10.90;;;;;;;20.21;72.83;99862.91;5015692;28;20129;-68
2021/07/04 01:50:16;;;;;;;19.35;12.10;;;;;;;20.23;72.57;99863.31;5015046;28;20061;-68
2021/07/04 01:52:51;;;;;;;19.65;11.32;;;;;;;20.13;73.32;99857.59;5015312;28;20062;-68
2021/07/04 01:55:21;;;;;;;17.67;11.15;;;;;;;20.15;73.18;99858.03;5015382;28;20384;-68
2021/07/04 01:57:50;;;;;;;19.38;10.48;;;;;;;20.15;73.14;99850.34;5015253;28;20058;-68
2021/07/04 02:00:22;;;;;;;17.98;10.65;;;;;;;20.10;73.36;99852.75;5015188;28;20054;-68
2021/07/04 02:02:54;;;;;;;18.52;10.70;;;;;;;20.12;73.40;99851.16;5005137;28;20050;-68
2021/07/04 02:05:22;;;;;;;16.10;11.10;;;;;;;20.10;73.73;99842.25;5006522;28;20049;-68
2021/07/04 02:07:50;;;;;;;13.98;11.48;;;;;;;20.10;74.05;99845.06;5014427;28;20510;-68
2021/07/04 02:10:21;;;;;;;14.48;11.43;;;;;;;20.10;74.35;99845.06;5014255;28;20054;-68
2021/07/04 02:12:50;;;;;;;13.13;11.65;;;;;;;20.10;74.49;99839.41;5014675;28;20522;-68
2021/07/04 02:15:19;;;;;;;16.05;12.25;;;;;;;19.99;74.84;99844.19;5015430;28;20049;-68
2021/07/04 02:17:47;;;;;;;17.88;12.15;;;;;;;19.99;74.63;99847.00;5015116;28;20403;-68
2021/07/04 02:20:31;;;;;;;18.52;13.27;;;;;;;19.97;74.68;99841.75;5014925;28;20053;-68
2021/07/04 02:22:59;;;;;;;18.48;13.25;;;;;;;20.02;75.17;99835.72;5014367;28;20430;-68
2021/07/04 02:25:28;;;;;;;14.73;12.30;;;;;;;20.06;74.82;99835.75;5014798;28;20056;-69
2021/07/04 02:27:56;;;;;;;14.70;12.20;;;;;;;20.05;74.60;99837.78;5014844;28;20073;-68
2021/07/04 02:30:26;;;;;;;14.02;11.40;;;;;;;20.02;74.69;99830.06;5014515;28;20054;-68
2021/07/04 02:32:53;;;;;;;15.23;12.73;;;;;;;20.01;74.47;99830.47;5014481;28;20061;-68
2021/07/04 02:35:21;;;;;;;24.55;13.98;;;;;;;19.92;74.40;99827.97;5014986;28;20411;-68
2021/07/04 02:37:48;;;;;;;18.63;12.65;;;;;;;19.93;74.47;99823.97;5015032;28;20049;-68
2021/07/04 02:40:16;;;;;;;17.55;11.98;;;;;;;19.94;74.18;99821.94;5013928;28;20045;-68
2021/07/04 02:42:45;;;;;;;17.33;12.90;;;;;;;19.93;74.09;99823.13;5014905;28;20483;-68
2021/07/04 02:45:13;;;;;;;21.58;13.73;;;;;;;19.90;74.36;99818.28;5014530;28;20060;-68
2021/07/04 02:47:41;;;;;;;18.02;12.10;;;;;;;19.91;73.89;99823.56;5014869;28;20050;-69
2021/07/04 02:50:10;;;;;;;18.13;12.30;;;;;;;19.92;74.09;99821.53;5014463;28;20133;-68
2021/07/04 02:52:37;;;;;;;22.15;13.18;;;;;;;19.93;73.80;99817.47;5014451;28;20057;-68
2021/07/04 02:55:07;;;;;;;12.85;11.02;;;;;;;19.93;74.17;99817.47;5014405;28;20061;-68
2021/07/04 02:57:34;;;;;;;20.02;11.63;;;;;;;19.93;74.16;99820.31;5014737;28;20384;-68
2021/07/04 03:00:07;;;;;;;18.73;12.70;;;;;;;19.95;74.29;99812.25;5014117;28;20049;-68
2021/07/04 03:02:34;;;;;;;17.70;11.75;;;;;;;19.91;74.26;99819.91;5006316;28;20510;-68
2021/07/04 03:05:02;;;;;;;17.67;12.15;;;;;;;19.90;74.26;99821.91;4994727;28;20058;-68
2021/07/04 03:07:31;;;;;;;17.17;11.45;;;;;;;19.86;74.22;99818.25;4996119;28;20392;-68
2021/07/04 03:09:59;;;;;;;23.00;11.88;;;;;;;19.87;73.55;99822.72;5013312;28;20053;-68
2021/07/04 03:12:27;;;;;;;15.00;10.95;;;;;;;19.87;73.27;99814.25;5013973;28;20058;-68
2021/07/04 03:14:54;;;;;;;21.92;10.82;;;;;;;19.86;73.42;99810.59;5014224;28;20054;-68
2021/07/04 03:17:23;;;;;;;19.42;11.27;;;;;;;19.87;73.45;99811.41;5013780;28;20356;-68
2021/07/04 03:19:51;;;;;;;18.20;11.48;;;;;;;19.89;73.78;99820.31;5014059;28;20049;-68
2021/07/04 03:22:18;;;;;;;19.10;11.82;;;;;;;19.88;74.05;99821.50;5012477;28;20518;-68
2021/07/04 03:24:46;;;;;;;21.13;12.38;;;;;;;19.89;74.17;99822.34;5013137;28;20054;-68
2021/07/04 03:27:13;;;;;;;17.52;12.18;;;;;;;19.90;74.35;99823.94;5014303;28;20054;-68
2021/07/04 03:29:41;;;;;;;14.38;11.80;;;;;;;19.90;73.99;99819.09;5013832;28;20062;-68
2021/07/04 03:32:08;;;;;;;15.68;11.82;;;;;;;19.91;74.12;99814.25;5013134;28;20403;-69
2021/07/04 03:34:37;;;;;;;14.93;11.55;;;;;;;19.93;74.32;99806.19;5013561;28;20058;-68
2021/07/04 03:37:07;;;;;;;21.25;12.18;;;;;;;19.87;74.53;99797.28;5014077;28;20050;-68
2021/07/04 03:39:35;;;;;;;17.00;11.50;;;;;;;19.85;74.36;99800.50;5012715;28;20054;-68
2021/07/04 03:42:02;;;;;;;18.83;11.77;;;;;;;19.83;74.32;99802.91;5013530;28;20058;-68
2021/07/04 03:44:30;;;;;;;18.92;11.60;;;;;;;19.81;74.68;99810.97;5013799;28;20056;-68
2021/07/04 03:46:58;;;;;;;18.70;12.13;;;;;;;19.80;74.64;99803.69;5013172;28;20053;-68
2021/07/04 03:49:25;;;;;;;23.13;12.35;;;;;;;19.79;74.84;99802.06;5013327;28;20068;-68
2021/07/04 03:51:54;;;;;;;14.30;11.48;;;;;;;19.83;75.11;99797.25;5013688;28;20058;-68
2021/07/04 03:54:21;;;;;;;16.45;12.73;;;;;;;19.85;75.03;99800.50;5007049;28;20394;-68
2021/07/04 03:56:49;;;;;;;17.23;12.57;;;;;;;19.89;74.98;99799.72;5012092;28;20057;-67
2021/07/04 03:59:17;;;;;;;17.48;12.30;;;;;;;19.90;75.08;99798.50;5004055;28;20081;-67
2021/07/04 04:01:44;;;;;;;14.93;12.13;;;;;;;19.84;74.98;99798.88;5013711;28;20069;-70
2021/07/04 04:04:12;;;;;;;20.83;13.35;;;;;;;19.87;74.58;99802.94;5033190;28;20053;-67
2021/07/04 04:06:39;;;;;;;16.88;12.05;;;;;;;19.90;74.13;99802.13;5033109;28;20064;-67
2021/07/04 04:09:08;;;;;;;15.07;11.82;;;;;;;19.91;74.03;99803.75;5018035;28;20447;-68
2021/07/04 04:11:35;;;;;;;18.33;11.63;;;;;;;19.94;73.81;99810.63;5013216;28;20057;-68
2021/07/04 04:14:03;;;;;;;17.60;11.45;;;;;;;19.91;74.34;99809.41;5012908;28;20057;-67
2021/07/04 04:16:30;;;;;;;19.67;12.15;;;;;;;19.95;74.61;99812.25;5012844;28;20057;-67
2021/07/04 04:18:58;;;;;;;18.08;12.35;;;;;;;19.96;74.44;99811.06;5012960;28;20066;-67
2021/07/04 04:21:28;;;;;;;17.60;12.65;;;;;;;19.97;74.44;99818.31;5012878;28;20403;-67
2021/07/04 04:23:55;;;;;;;16.17;12.85;;;;;;;19.97;74.62;99807.00;5012192;28;20057;-67
2021/07/04 04:26:24;;;;;;;18.52;12.93;;;;;;;19.99;74.40;99810.25;5012670;28;20069;-67
2021/07/04 04:28:52;;;;;;;17.10;12.23;;;;;;;19.96;74.23;99811.06;5011771;28;20045;-68
2021/07/04 04:31:19;;;;;;;15.70;12.23;;;;;;;19.96;74.40;99816.72;5012354;28;20053;-68
2021/07/04 04:33:47;;;;;;;21.30;12.05;;;;;;;19.96;73.72;99808.22;5013130;28;20054;-68
2021/07/04 04:36:14;;;;;;;19.85;11.93;;;;;;;19.99;73.80;99810.25;5012715;28;20050;-68
2021/07/04 04:38:42;;;;;;;17.33;11.30;;;;;;;20.04;73.42;99805.03;5012007;28;20829;-68
2021/07/04 04:41:09;;;;;;;13.02;11.73;;;;;;;20.07;73.01;99803.44;5012901;28;20403;-67
2021/07/04 04:43:40;;;;;;;15.25;11.00;;;;;;;20.07;73.16;99807.09;5012692;28;20497;-67
2021/07/04 04:46:08;;;;;;;14.77;10.77;;;;;;;20.14;72.84;99811.13;5012629;28;20407;-67
2021/07/04 04:48:35;;;;;;;14.70;11.57;;;;;;;20.16;72.64;99809.56;5012614;28;20045;-68
2021/07/04 04:51:03;;;;;;;21.48;11.10;;;;;;;20.16;72.54;99815.22;5012345;28;20061;-68
2021/07/04 04:53:31;;;;;;;16.17;10.43;;;;;;;20.16;72.33;99809.56;5012023;28;20402;-68
2021/07/04 04:55:58;;;;;;;21.00;11.48;;;;;;;20.22;72.17;99813.63;5012580;28;20069;-68
2021/07/04 04:58:25;;;;;;;14.00;11.82;;;;;;;20.30;71.83;99816.50;5012800;28;20058;-68
2021/07/04 05:00:54;;;;;;;17.98;11.68;;;;;;;20.36;72.16;99809.25;5012462;28;20361;-68
2021/07/04 05:03:22;;;;;;;15.45;10.27;;;;;;;20.43;71.62;99809.25;5026407;28;20060;-68
2021/07/04 05:05:49;;;;;;;14.13;10.50;;;;;;;20.47;71.28;99807.25;5031811;28;20424;-68
2021/07/04 05:08:18;;;;;;;13.40;10.20;;;;;;;20.52;71.15;99811.75;5024950;28;20056;-68
2021/07/04 05:10:46;;;;;;;14.50;11.10;;;;;;;20.56;70.92;99809.75;5011794;28;20061;-68
2021/07/04 05:13:16;;;;;;;13.57;10.27;;;;;;;20.60;71.32;99808.56;5012627;28;20050;-68
2021/07/04 05:15:43;;;;;;;13.50;10.57;;;;;;;20.61;71.77;99812.19;5012367;28;20058;-68
2021/07/04 05:18:13;;;;;;;14.27;11.30;;;;;;;20.62;71.41;99808.16;5012101;28;20050;-68
2021/07/04 05:20:41;;;;;;;14.57;11.15;;;;;;;20.64;71.49;99814.22;5012513;28;20053;-68
2021/07/04 05:23:09;;;;;;;11.93;10.32;;;;;;;20.55;71.30;99808.91;5012174;28;20058;-68
2021/07/04 05:25:37;;;;;;;15.02;10.98;;;;;;;20.58;71.41;99813.81;5011060;28;20134;-68
2021/07/04 05:28:05;;;;;;;17.55;12.02;;;;;;;20.59;72.01;99812.59;5012070;28;20577;-68
2021/07/04 05:30:33;;;;;;;16.60;12.52;;;;;;;20.59;72.34;99811.78;5012572;28;20506;-68
2021/07/04 05:33:00;;;;;;;13.73;12.25;;;;;;;20.59;72.50;99804.09;5012640;28;20509;-68
2021/07/04 05:35:31;;;;;;;15.02;11.80;;;;;;;20.58;72.34;99805.31;5012334;28;20058;-68
2021/07/04 05:38:02;;;;;;;16.58;11.40;;;;;;;20.61;72.33;99804.50;5011769;28;20509;-68
2021/07/04 05:40:29;;;;;;;14.45;11.32;;;;;;;20.62;72.16;99806.16;5012099;28;20054;-68
2021/07/04 05:42:57;;;;;;;14.20;11.77;;;;;;;20.62;71.97;99817.47;5012020;28;20057;-68
2021/07/04 05:45:28;;;;;;;13.15;10.70;;;;;;;20.59;72.32;99814.63;5012224;28;20058;-68
2021/07/04 05:47:56;;;;;;;17.40;12.15;;;;;;;20.55;72.54;99813.75;5015894;28;20060;-68
2021/07/04 05:50:23;;;;;;;12.85;11.45;;;;;;;20.65;71.73;99813.81;5016066;28;20072;-68
2021/07/04 05:52:52;;;;;;;13.65;12.25;;;;;;;20.76;71.60;99813.84;5015068;28;20054;-68
2021/07/04 05:55:20;;;;;;;13.98;11.05;;;;;;;20.83;71.10;99802.56;5015194;28;20058;-68
2021/07/04 05:57:47;;;;;;;12.73;11.25;;;;;;;20.91;70.37;99806.22;5015307;28;20054;-68
2021/07/04 06:00:16;;;;;;;12.88;11.00;;;;;;;20.95;70.29;99811.88;5015062;28;20053;-68
2021/07/04 06:02:43;;;;;;;14.15;11.35;;;;;;;21.02;70.26;99804.22;5006379;28;20054;-68
2021/07/04 06:05:14;;;;;;;13.80;11.13;;;;;;;21.08;70.23;99796.94;4995796;28;20066;-68
2021/07/04 06:07:41;;;;;;;13.75;11.00;;;;;;;21.19;70.73;99796.16;4998057;28;20066;-68
2021/07/04 06:10:12;;;;;;;13.52;12.27;;;;;;;21.32;70.28;99803.03;4995633;28;20418;-68
2021/07/04 06:12:40;;;;;;;12.32;10.98;;;;;;;21.54;69.90;99797.38;4996059;28;20051;-69
2021/07/04 06:15:08;;;;;;;12.57;11.25;;;;;;;21.71;69.46;99793.72;4995029;28;20536;-69
2021/07/04 06:17:38;;;;;;;12.40;10.75;;;;;;;21.85;68.43;99793.69;4995814;28;20057;-69
2021/07/04 06:20:08;;;;;;;14.50;10.02;;;;;;;21.96;68.16;99799.34;4995693;28;20057;-69
2021/07/04 06:22:37;;;;;;;;;;;;;;;22.01;67.14;99790.44;4999072;28;20054;-69
2021/07/04 06:25:05;;;;;;;11.10;8.63;;;;;;;22.11;67.49;99794.44;5014541;28;20392;-69
2021/07/04 06:27:34;;;;;;;12.90;9.77;;;;;;;22.24;66.71;99787.16;5014776;28;20061;-69
2021/07/04 06:30:01;;;;;;;11.43;10.23;;;;;;;22.35;65.79;99797.66;5015150;28;20050;-69
2021/07/04 06:32:29;;;;;;;12.90;10.02;;;;;;;22.49;65.32;99795.56;5014357;28;20046;-69
2021/07/04 06:34:56;;;;;;;12.18;10.20;;;;;;;22.65;63.97;99789.38;5015007;28;20054;-69
2021/07/04 06:37:23;;;;;;;10.18;8.90;;;;;;;22.83;63.38;99792.13;5014245;28;20076;-69
2021/07/04 06:39:54;;;;;;;11.55;9.43;;;;;;;22.99;62.41;99785.91;5014188;28;20054;-69
2021/07/04 06:42:21;;;;;;;10.77;9.68;;;;;;;23.07;62.55;99789.56;5014788;28;20058;-69
2021/07/04 06:44:51;;;;;;;13.73;10.10;;;;;;;23.22;61.88;99787.41;5014779;28;20053;-69
2021/07/04 06:47:18;;;;;;;;;;;;;;;23.50;60.61;99780.72;5014922;28;20054;-69
2021/07/04 06:49:45;;;;;;;10.15;8.57;;;;;;;23.76;60.40;99789.78;5014914;28;19922;-69
2021/07/04 06:52:13;;;;;;;8.95;7.90;;;;;;;23.99;57.93;99792.03;5014716;28;20046;-69
2021/07/04 06:54:40;;;;;;;10.63;7.80;;;;;;;24.11;57.66;99786.59;5014727;28;20050;-69
2021/07/04 06:59:50;;;;;;;10.43;7.90;;;;;;;24.23;56.45;99788.09;5013057;28;20053;-69
2021/07/04 07:02:18;;;;;;;8.95;7.53;;;;;;;24.11;57.17;99782.97;5008719;28;20065;-69
2021/07/04 07:04:45;;;;;;;8.10;7.40;;;;;;;24.42;56.60;99778.09;4994598;28;20058;-69
2021/07/04 07:07:12;;;;;;;8.77;7.88;;;;;;;24.69;55.42;99766.78;4994480;28;20054;-69
2021/07/04 07:09:40;;;;;;;9.23;7.45;;;;;;;25.03;56.73;99770.75;5005733;28;20046;-69
2021/07/04 07:12:08;;;;;;;8.35;7.55;;;;;;;25.28;54.16;99767.53;5011049;28;20072;-69
2021/07/04 07:14:35;;;;;;;8.35;7.55;;;;;;;25.50;54.71;99770.84;5010907;28;20061;-69
2021/07/04 07:17:05;;;;;;;9.88;7.47;;;;;;;25.66;55.07;99775.84;5011440;28;20061;-69
2021/07/04 07:19:33;;;;;;;7.97;7.10;;;;;;;25.44;54.44;99779.06;5011629;28;20057;-69
2021/07/04 07:22:00;;;;;;;10.95;6.53;;;;;;;25.39;53.04;99773.03;5012531;28;20130;-69
2021/07/04 07:24:31;;;;;;;8.65;7.32;;;;;;;25.23;54.18;99773.72;5009382;28;20060;-69
2021/07/04 07:26:58;;;;;;;7.65;6.43;;;;;;;24.94;54.43;99770.50;5013359;28;20058;-69
2021/07/04 07:29:26;;;;;;;7.82;7.07;;;;;;;24.99;53.64;99776.53;5012850;28;20045;-69
2021/07/04 07:31:53;;;;;;;9.98;6.78;;;;;;;24.84;54.86;99777.94;5013047;28;20058;-69
2021/07/04 07:34:22;;;;;;;7.10;6.40;;;;;;;25.09;54.30;99767.00;5011612;28;20359;-69
2021/07/04 07:36:50;;;;;;;8.43;7.55;;;;;;;25.10;54.18;99759.25;5013279;28;20061;-69
2021/07/04 07:39:17;;;;;;;8.45;6.80;;;;;;;25.29;54.62;99764.25;5013562;28;20058;-69
2021/07/04 07:41:48;;;;;;;9.52;7.47;;;;;;;25.66;54.95;99761.56;5013374;28;20076;-69
2021/07/04 07:44:15;;;;;;;7.75;7.05;;;;;;;25.81;51.88;99765.78;5010159;28;20056;-69
2021/07/04 07:46:43;;;;;;;7.78;6.80;;;;;;;26.11;51.26;99764.00;5013600;28;20053;-69
2021/07/04 07:49:11;;;;;;;7.55;6.85;;;;;;;26.29;50.61;99752.22;4994079;28;20050;-69
2021/07/04 07:51:39;;;;;;;7.53;6.82;;;;;;;26.55;50.57;99746.78;4999061;28;20058;-69
2021/07/04 07:54:07;;;;;;;7.78;7.00;;;;;;;26.89;50.27;99737.84;5013755;28;20050;-69
2021/07/04 07:56:34;;;;;;;7.07;6.38;;;;;;;27.25;48.59;99745.59;5012973;28;20425;-69
2021/07/04 07:59:02;;;;;;;7.35;6.65;;;;;;;27.78;47.99;99737.63;5012572;28;20050;-69
2021/07/04 08:01:29;;;;;;;7.95;6.50;;;;;;;28.20;46.80;99742.63;5013201;28;20050;-69
2021/07/04 08:03:57;;;;;;;7.25;6.50;;;;;;;28.28;46.61;99741.97;5031952;28;20060;-68
2021/07/04 08:06:24;;;;;;;7.35;6.50;;;;;;;29.65;43.67;99729.84;5022567;28;20050;-69
2021/07/04 08:08:53;;;;;;;7.70;6.82;;;;;;;30.44;41.98;99729.84;5012678;28;20060;-68
2021/07/04 08:11:20;;;;;;;7.07;6.40;;;;;;;30.70;40.39;99723.91;5013368;28;20064;-68
2021/07/04 08:13:47;;;;;;;9.70;6.97;;;;;;;31.73;39.10;99721.69;5012994;28;20064;-67
2021/07/04 08:16:16;;;;;;;5.75;5.18;;;;;;;32.89;35.69;99712.19;5011632;28;20053;-62
2021/07/04 08:18:44;;;;;;;9.05;6.03;;;;;;;33.59;34.83;99708.28;5012396;28;20061;-67
2021/07/04 08:21:11;;;;;;;7.13;5.82;;;;;;;34.01;32.21;99706.50;5011254;28;20054;-67
2021/07/04 08:23:39;;;;;;;6.03;5.43;;;;;;;34.97;31.24;99694.53;5012807;28;20042;-67
2021/07/04 08:26:08;;;;;;;5.55;5.05;;;;;;;35.67;31.12;99695.78;5012735;28;20054;-67
2021/07/04 08:28:36;;;;;;;6.43;5.82;;;;;;;36.05;28.84;99691.75;5012825;28;20049;-67
2021/07/04 08:31:03;;;;;;;6.75;6.05;;;;;;;36.47;28.54;99698.25;5012816;28;20057;-68
2021/07/04 08:33:31;;;;;;;7.00;6.40;;;;;;;36.05;28.55;99693.84;5011548;28;20066;-68
2021/07/04 08:35:58;;;;;;;6.57;5.97;;;;;;;37.54;28.04;99691.06;4993289;28;20061;-68
2021/07/04 08:38:26;;;;;;;6.40;5.80;;;;;;;38.47;26.13;99691.59;5007763;28;20054;-68
2021/07/04 08:40:53;;;;;;;6.25;5.75;;;;;;;38.98;25.66;99677.88;5012576;28;20057;-67
2021/07/04 08:43:30;;;;;;;6.38;5.70;;;;;;;39.80;24.50;99670.69;5012680;28;20356;-68
2021/07/04 08:45:58;;;;;;;7.57;6.07;;;;;;;40.28;24.00;99666.41;5012280;28;20076;-68
2021/07/04 08:48:26;;;;;;;6.05;5.45;;;;;;;39.87;23.36;99675.97;5012495;28;20058;-68
2021/07/04 08:50:54;;;;;;;6.30;5.80;;;;;;;39.51;23.62;99667.13;5012910;28;20049;-67
2021/07/04 08:53:22;;;;;;;5.65;5.15;;;;;;;39.87;23.67;99664.31;5011942;28;20050;-67
2021/07/04 08:55:49;;;;;;;6.05;5.53;;;;;;;40.28;22.54;99665.59;5011993;28;20054;-67
2021/07/04 08:58:27;;;;;;;5.70;5.20;;;;;;;40.94;21.90;99665.59;5012496;28;20479;-67
2021/07/04 09:01:14;;;;;;;5.60;5.10;;;;;;;42.16;20.52;99666.75;5012192;28;20061;-67
2021/07/04 09:03:44;;;;;;;5.95;5.40;;;;;;;42.39;19.98;99656.25;5012158;28;20061;-67
2021/07/04 09:06:12;;;;;;;6.07;5.47;;;;;;;42.01;21.28;99663.53;5012769;28;20053;-68
2021/07/04 09:08:40;;;;;;;;;;;;;;;42.72;20.10;99656.25;5012912;28;20403;-68
2021/07/04 09:11:16;;;;;;;5.97;5.10;;;;;;;43.54;19.23;99647.75;5011825;28;20370;-70
2021/07/04 09:13:45;;;;;;;5.70;5.15;;;;;;;44.50;18.12;99645.53;5012052;28;20057;-68
2021/07/04 09:16:17;;;;;;;5.38;4.88;;;;;;;45.39;17.84;99644.44;5012302;28;20061;-67
2021/07/04 09:18:45;;;;;;;6.28;4.85;;;;;;;44.13;18.84;99647.50;5012250;28;20053;-68
2021/07/04 09:21:30;;;;;;;6.47;5.15;;;;;;;42.16;20.60;99647.03;5013802;28;20058;-68
2021/07/04 09:23:57;;;;;;;5.70;5.20;;;;;;;40.68;21.51;99646.47;5015282;28;20072;-69
2021/07/04 09:26:39;;;;;;;5.90;5.30;;;;;;;39.52;23.81;99636.66;5015905;28;20049;-68
2021/07/04 09:29:08;;;;;;;5.93;5.43;;;;;;;40.46;22.73;99629.16;5015732;28;20057;-67
2021/07/04 09:31:38;;;;;;;7.32;6.68;;;;;;;42.08;21.03;99624.84;5015800;28;20379;-67
2021/07/04 09:34:08;;;;;;;7.07;5.35;;;;;;;43.23;19.46;99623.06;5020642;28;20042;-67
2021/07/04 09:36:36;;;;;;;7.82;5.75;;;;;;;44.36;18.34;99616.22;5029043;28;20061;-68
2021/07/04 09:39:17;;;;;;;5.88;5.38;;;;;;;45.48;17.32;99602.72;5015503;28;20414;-68
2021/07/04 09:42:07;;;;;;;6.32;5.72;;;;;;;44.07;17.50;99609.47;5015498;28;20502;-68
2021/07/04 09:44:36;;;;;;;5.55;5.05;;;;;;;43.83;18.89;99598.84;5015536;28;20050;-68
2021/07/04 09:47:21;;;;;;;6.18;5.32;;;;;;;43.88;18.52;99603.00;5015277;28;20058;-68
2021/07/04 09:49:49;;;;;;;6.20;5.68;;;;;;;43.92;18.73;99597.56;5015729;28;20054;-68
2021/07/04 09:52:19;;;;;;;6.07;5.60;;;;;;;45.34;16.56;99593.25;5014984;28;20049;-68
2021/07/04 09:54:58;;;;;;;5.88;5.38;;;;;;;46.86;15.09;99590.41;5015719;28;20061;-69
2021/07/04 09:57:27;;;;;;;5.50;4.55;;;;;;;45.20;17.10;99582.19;5014997;28;20054;-68
2021/07/04 10:00:14;;;;;;;5.00;4.60;;;;;;;42.81;19.14;99597.22;5015022;28;20410;-67
2021/07/04 10:02:43;;;;;;;5.10;4.70;;;;;;;41.89;20.64;99590.53;5014998;28;20356;-68
2021/07/04 10:05:15;;;;;;;5.53;5.03;;;;;;;40.69;21.38;99580.88;5014668;28;20057;-67
2021/07/04 10:07:43;;;;;;;5.43;4.93;;;;;;;39.81;23.06;99584.00;5014556;28;20068;-67
2021/07/04 10:10:12;;;;;;;7.53;5.53;;;;;;;38.80;24.61;99580.19;5014651;28;20053;-67
2021/07/04 10:12:40;;;;;;;5.53;5.13;;;;;;;37.91;25.08;99576.78;5014225;28;20455;-67
2021/07/04 10:15:08;;;;;;;5.43;4.93;;;;;;;36.98;26.35;99572.50;5015289;28;20052;-67
2021/07/04 10:17:37;;;;;;;5.97;5.43;;;;;;;35.88;27.79;99569.84;5014503;28;20050;-67
2021/07/04 10:20:08;;;;;;;5.90;5.30;;;;;;;35.47;29.13;99572.84;5013225;28;20057;-67
2021/07/04 10:22:37;;;;;;;9.00;5.88;;;;;;;36.07;28.05;99564.47;5010270;28;20054;-65
2021/07/04 10:25:08;;;;;;;5.68;5.07;;;;;;;36.79;26.44;99565.53;5009842;28;20184;-66
2021/07/04 10:27:39;;;;;;;6.10;5.50;;;;;;;35.71;27.84;99551.50;5011187;28;20053;-65
2021/07/04 10:30:08;;;;;;;5.78;5.25;;;;;;;35.12;28.99;99550.53;5011719;28;20049;-66
2021/07/04 10:32:35;;;;;;;5.82;5.07;;;;;;;34.92;29.33;99556.34;5015242;28;20491;-66
2021/07/04 10:35:10;;;;;;;6.28;5.50;;;;;;;34.68;29.20;99554.44;5014200;28;20065;-67
2021/07/04 10:37:39;;;;;;;5.65;5.05;;;;;;;34.57;30.07;99552.16;5011777;28;20494;-67
2021/07/04 10:40:16;;;;;;;7.03;6.32;;;;;;;37.27;25.96;99541.47;5007446;28;20054;-66
2021/07/04 10:42:46;;;;;;;6.65;6.15;;;;;;;39.85;23.05;99535.75;5008513;28;20050;-67
2021/07/04 10:45:29;;;;;;;7.05;5.80;;;;;;;41.98;20.84;99540.41;5010983;28;20046;-67
2021/07/04 10:47:58;;;;;;;7.35;5.30;;;;;;;43.69;18.65;99529.84;5002846;28;20049;-67
2021/07/04 10:50:27;;;;;;;5.57;5.10;;;;;;;44.69;17.40;99519.78;5014351;28;20069;-67
2021/07/04 10:52:54;;;;;;;5.20;4.28;;;;;;;43.70;17.64;99516.75;5014716;28;20521;-67
2021/07/04 10:55:30;;;;;;;4.97;4.57;;;;;;;41.50;20.43;99518.81;5013766;28;20056;-67
2021/07/04 10:58:00;;;;;;;6.25;5.10;;;;;;;40.44;22.06;99518.00;5014166;28;20060;-67
2021/07/04 11:00:34;;;;;;;6.65;5.25;;;;;;;38.96;23.50;99508.72;5014267;28;20515;-66
2021/07/04 11:03:04;;;;;;;5.60;5.10;;;;;;;37.90;25.72;99516.25;5014347;28;20065;-66
2021/07/04 11:05:52;;;;;;;10.07;6.35;;;;;;;36.65;28.34;99509.28;5013940;28;20062;-67
2021/07/04 11:08:26;;;;;;;6.13;5.57;;;;;;;35.87;31.97;99516.09;5014059;28;20418;-66
2021/07/04 11:11:09;;;;;;;8.95;6.35;;;;;;;35.24;34.43;99513.88;5013577;28;20050;-66
2021/07/04 11:13:45;;;;;;;8.95;6.38;;;;;;;34.61;35.06;99519.31;5014490;28;20061;-66
2021/07/04 11:16:18;;;;;;;9.50;7.10;;;;;;;34.54;35.92;99520.53;5012745;28;20061;-66
2021/07/04 11:18:49;;;;;;;8.98;6.65;;;;;;;33.71;39.09;99512.94;5013791;28;20054;-66
2021/07/04 11:21:20;;;;;;;7.47;5.57;;;;;;;32.95;39.03;99519.03;5013925;28;20050;-66
2021/07/04 11:24:08;;;;;;;8.23;5.00;;;;;;;32.15;37.88;99528.00;5013102;28;20081;-66
2021/07/04 11:26:38;;;;;;;8.05;4.25;;;;;;;31.37;40.07;99520.94;5014263;28;20380;-66
2021/07/04 11:29:12;;;;;;;5.88;3.80;;;;;;;30.68;40.85;99528.91;5013713;28;20403;-66
2021/07/04 11:31:43;;;;;;;4.25;3.85;;;;;;;30.39;40.16;99540.81;5013622;28;20510;-66
2021/07/04 11:34:11;;;;;;;4.00;3.60;;;;;;;30.15;40.65;99540.50;5012266;28;20046;-68
2021/07/04 11:36:39;;;;;;;4.72;3.80;;;;;;;30.59;40.99;99530.94;5012953;28;20114;-66
2021/07/04 11:39:10;;;;;;;3.30;3.00;;;;;;;30.69;40.68;99532.56;5013977;28;20060;-66